Airfield :
LOGIN :

Register | Disclaimer

   EN    FR    IT 

 










Legend :    VFR   Marginal VFR   IFR   Intensive IFR   Very Intensive IFR
Visi :
Ceiling :
>= 8 km
>= 3000ft
5 to 8 km
1000 to 3000 ft
1500m to 5 km
500 to 1000 ft
800 to 1500m
200 to 500 ft
< 800m
< 200 ft
Symbols :   Thunderstorms  Fog  Heavy snow  Heavy precipitations  Wind > 20 kt
SIGMETs :     Misc.  Thunderstorms  Icing  Turbulence  Mountain Waves  Volcanic Ashes







- Airport Elevation : 605 ft
- IATA code : BAY


LRBM - Tautii Magheraus

CURRENT METAR :
  • 151200Z AUTO 23006KT 200V260 9999 FEW065/// SCT220/// 22/02 Q1025

EXPIRED METARs :
  • 151130Z AUTO VRB05KT 9999 FEW015/// SCT240/// 22/03 Q1026
  • 151100Z AUTO VRB04KT 9999 FEW012/// SCT200/// 22/03 Q1026
  • 151030Z AUTO VRB02KT 9999 FEW050/// SCT230/// 21/00 Q1027
  • 151000Z AUTO VRB04KT 9999 FEW013/// SCT190/// 20/03 Q1027
  • 150930Z AUTO VRB04KT 9999 FEW042/// SCT230/// 19/04 Q1027

Expired Forecast.
No reported NOTAMs for that airfield.



MET'MAP, your aeronautical weather chart ! - Copyright ORBIFLY December 2007 - Disclaimer

ORBIFLY MET'MAP TEAM :

Programming & Development : Alexandra Zaïnal
Concept & Development : Baudouin d'Aumeries
Co-Development & Prog : Marc-Olivier Méhu
Technical & hardware support : Manuel Goepfert

Contact : metmap@orbifly.com




SOURCES & CREDITS :

   NOAA